CW0630 Weather Reports


Display with metric or nautical units.
time (UTC)temp
F
wind
direction
speed
MPH
gust
MPH
rain 1hr
in
rain 24hr
in
rain mn
in
humidity
%
barometer
mb
20200228001029 39 283 0.0 3.0 0.00 0.00 0.00 42 1014.8
20200227231022 41 257 10.0 10.0 0.00 0.00 0.00 38 1013.5
20200227221016 44 219 6.0 15.0 0.00 0.00 0.00 35 1012.6
20200227211022 47 238 13.0 13.0 0.00 0.00 0.00 34 1011.9
20200227201017 50 261 10.0 10.0 0.00 0.00 0.00 32 1011.1
20200227191029 51 269 1.0 6.0 0.00 0.00 0.00 36 1011.1
20200227181014 48 241 13.0 13.0 0.00 0.00 0.00 37 1011.4
20200227171013 47 265 11.0 11.0 0.00 0.00 0.00 41 1012.0
20200227161016 45 290 12.0 12.0 0.00 0.00 0.00 45 1011.7
20200227151027 44 309 0.0 4.0 0.00 0.00 0.00 47 1010.9
20200227141014 43 248 4.0 10.0 0.00 0.00 0.00 49 1010.4
20200227131030 41 257 3.0 3.0 0.00 0.00 0.00 63 1009.2
20200227121029 36 256 4.0 4.0 0.00 0.00 0.00 70 1007.5
20200227111031 37 257 2.0 3.0 0.00 0.00 0.00 70 1006.6
20200227101030 38 226 3.0 3.0 0.00 0.00 0.00 80 1005.4
20200227091028 40 271 8.0 8.0 0.00 0.00 0.00 82 1004.5
20200227081019 42 259 4.0 7.0 0.00 0.00 0.00 80 1004.0
20200227071029 44 288 7.0 7.0 0.00 0.00 0.00 75 1003.6
20200227061013 47 281 5.0 5.0 0.00 0.00 0.00 73 1003.2
20200227051029 48 311 12.0 12.0 0.00 0.00 0.00 79 1002.3
20200227041014 54 280 7.0 7.0 0.00 0.00 0.02 97 1000.4
20200227031021 54 175 2.0 2.0 0.00 0.00 0.02 97 1000.6
20200227021027 54 117 4.0 4.0 0.01 0.00 0.02 97 1001.6
20200227011028 54 160 1.0 4.0 0.00 0.00 0.01 96 1003.0